Time;durP1;ratioP1;P1;durP2;ratioP2;P2;SDS_P1;SDS_P2;PMS_P1;PMS_P2;Temp;Humidity;BMP_temperature;BMP_pressure;BME280_temperature;BME280_humidity;BME280_pressure;Samples;Min_cycle;Max_cycle;Signal;HPM_P1;HPM_P2
2023/07/18 00:01:35;;;;;;;;;;;;;;;24.38;41.63;96276.91;10402976;28;1947;-64
2023/07/18 00:06:38;;;;;;;;;;;;;;;24.36;41.54;96279.03;10405055;28;2015;-64
2023/07/18 00:11:38;;;;;;;;;;;;;;;24.36;41.68;96277.16;10412202;28;1992;-65
2023/07/18 00:16:39;;;;;;;;;;;;;;;24.40;41.17;96277.41;10410019;28;1910;-64
2023/07/18 00:21:40;;;;;;;;;;;;;;;24.38;41.29;96269.72;10404593;28;2371;-65
2023/07/18 00:26:45;;;;;;;;;;;;;;;24.34;40.92;96274.00;10388862;28;2012;-64
2023/07/18 00:31:48;;;;;;;;;;;;;;;24.23;40.94;96273.34;10428561;28;4092;-64
2023/07/18 00:36:48;;;;;;;;;;;;;;;24.19;40.33;96279.50;10449975;28;4114;-64
2023/07/18 00:41:49;;;;;;;;;;;;;;;24.28;40.42;96277.03;10452792;28;5032;-64
2023/07/18 00:46:49;;;;;;;;;;;;;;;24.28;40.62;96274.38;10443031;28;1980;-64
2023/07/18 00:51:50;;;;;;;;;;;;;;;24.28;40.41;96271.72;10452691;28;1947;-64
2023/07/18 00:56:50;;;;;;;;;;;;;;;24.27;40.24;96270.13;10460587;28;1957;-64
2023/07/18 01:01:50;;;;;;;;;;;;;;;24.27;40.43;96270.94;10459144;28;1953;-64
2023/07/18 01:06:52;;;;;;;;;;;;;;;24.23;40.20;96267.28;10447324;28;1972;-64
2023/07/18 01:11:52;;;;;;;;;;;;;;;24.23;40.28;96260.09;10445058;28;2073;-64
2023/07/18 01:16:53;;;;;;;;;;;;;;;24.23;40.17;96238.91;10448518;28;2008;-65
2023/07/18 01:21:54;;;;;;;;;;;;;;;24.20;40.10;96236.84;10431161;28;2005;-64
2023/07/18 01:26:54;;;;;;;;;;;;;;;24.12;40.13;96242.78;10459373;28;1962;-64
2023/07/18 01:31:55;;;;;;;;;;;;;;;24.08;40.03;96230.38;10450174;28;2291;-64
2023/07/18 01:36:55;;;;;;;;;;;;;;;24.03;39.96;96225.91;10448630;28;1984;-65
2023/07/18 01:41:55;;;;;;;;;;;;;;;23.97;39.51;96223.59;10445278;28;1970;-65
2023/07/18 01:46:55;;;;;;;;;;;;;;;24.04;39.99;96227.50;10445104;28;2197;-64
2023/07/18 01:51:56;;;;;;;;;;;;;;;24.08;39.64;96230.38;10448726;28;2017;-64
2023/07/18 01:56:56;;;;;;;;;;;;;;;23.93;39.60;96228.66;10449183;28;2231;-64
2023/07/18 02:01:56;;;;;;;;;;;;;;;23.82;39.58;96221.13;10445865;28;1956;-64
2023/07/18 02:06:56;;;;;;;;;;;;;;;23.76;39.38;96217.75;10437378;28;2154;-65
2023/07/18 02:11:57;;;;;;;;;;;;;;;23.83;39.69;96210.25;10444424;28;1982;-64
2023/07/18 02:16:58;;;;;;;;;;;;;;;23.74;40.22;96214.59;10426029;28;1987;-65
2023/07/18 02:21:58;;;;;;;;;;;;;;;23.72;40.47;96226.56;10446440;28;1944;-64
2023/07/18 02:26:59;;;;;;;;;;;;;;;23.69;40.62;96221.81;10446533;28;1994;-65
2023/07/18 02:31:59;;;;;;;;;;;;;;;23.73;40.73;96204.28;10442212;28;2420;-65
2023/07/18 02:36:59;;;;;;;;;;;;;;;23.71;40.66;96212.53;10443577;28;2022;-64
2023/07/18 02:41:59;;;;;;;;;;;;;;;23.72;40.97;96211.44;10445701;28;5100;-64
2023/07/18 02:47:00;;;;;;;;;;;;;;;23.75;40.84;96210.88;10440217;28;2017;-65
2023/07/18 02:52:00;;;;;;;;;;;;;;;23.68;40.81;96207.78;10444253;28;1938;-65
2023/07/18 02:57:01;;;;;;;;;;;;;;;23.90;40.94;96208.06;10443424;28;1967;-65
2023/07/18 03:02:01;;;;;;;;;;;;;;;23.82;41.35;96213.19;10450887;28;1963;-65
2023/07/18 03:07:03;;;;;;;;;;;;;;;23.74;41.27;96206.66;10441514;28;1931;-65
2023/07/18 03:12:03;;;;;;;;;;;;;;;23.80;41.03;96205.50;10450089;28;1998;-65
2023/07/18 03:17:03;;;;;;;;;;;;;;;23.77;41.52;96214.03;10451123;28;2077;-65
2023/07/18 03:22:04;;;;;;;;;;;;;;;23.61;41.83;96217.94;10454247;28;1946;-65
2023/07/18 03:27:04;;;;;;;;;;;;;;;23.62;41.56;96214.19;10453912;28;2034;-65
2023/07/18 03:32:05;;;;;;;;;;;;;;;23.78;41.49;96212.19;10456845;28;1974;-65
2023/07/18 03:37:06;;;;;;;;;;;;;;;23.64;41.79;96214.72;10454039;28;1906;-65
2023/07/18 03:42:06;;;;;;;;;;;;;;;23.65;41.31;96213.66;10452107;28;5080;-65
2023/07/18 03:47:07;;;;;;;;;;;;;;;23.49;41.67;96216.75;10451649;28;1946;-65
2023/07/18 03:52:07;;;;;;;;;;;;;;;23.56;41.40;96210.03;10447607;28;2102;-65
2023/07/18 03:57:07;;;;;;;;;;;;;;;23.53;41.11;96205.31;10446980;28;2247;-65
2023/07/18 04:02:08;;;;;;;;;;;;;;;23.41;41.46;96216.28;10447310;28;2011;-64
2023/07/18 04:07:08;;;;;;;;;;;;;;;23.47;41.53;96198.50;10451017;28;1955;-65
2023/07/18 04:12:09;;;;;;;;;;;;;;;23.68;41.65;96204.38;10451089;28;2113;-65
2023/07/18 04:17:09;;;;;;;;;;;;;;;23.71;42.16;96199.28;10449429;28;2178;-65
2023/07/18 04:22:09;;;;;;;;;;;;;;;23.57;42.54;96200.25;10431003;28;2269;-65
2023/07/18 04:27:10;;;;;;;;;;;;;;;23.51;42.60;96196.88;10445669;28;2004;-64
2023/07/18 04:32:10;;;;;;;;;;;;;;;23.55;42.36;96195.25;10449601;28;2091;-64
2023/07/18 04:37:11;;;;;;;;;;;;;;;23.60;42.30;96187.22;10448487;28;1985;-65
2023/07/18 04:42:11;;;;;;;;;;;;;;;23.60;41.96;96187.22;10449563;28;5041;-66
2023/07/18 04:47:12;;;;;;;;;;;;;;;23.63;41.81;96181.38;10447137;28;2113;-65
2023/07/18 04:52:12;;;;;;;;;;;;;;;23.63;41.46;96176.09;10450981;28;1942;-65
2023/07/18 04:57:12;;;;;;;;;;;;;;;23.61;40.98;96161.56;10446410;28;2146;-65
2023/07/18 05:02:12;;;;;;;;;;;;;;;23.62;41.19;96161.28;10442724;28;2021;-65
2023/07/18 05:07:13;;;;;;;;;;;;;;;23.63;41.23;96165.50;10441151;28;1959;-65
2023/07/18 05:12:13;;;;;;;;;;;;;;;23.64;41.12;96172.34;10446615;28;1963;-65
2023/07/18 05:17:13;;;;;;;;;;;;;;;23.67;41.50;96177.09;10419962;28;2466;-64
2023/07/18 05:22:14;;;;;;;;;;;;;;;23.68;41.22;96173.38;10447001;28;2023;-65
2023/07/18 05:27:14;;;;;;;;;;;;;;;23.69;40.85;96180.25;10446374;28;1907;-65
2023/07/18 05:32:15;;;;;;;;;;;;;;;23.72;41.15;96165.66;10448767;28;2107;-64
2023/07/18 05:37:15;;;;;;;;;;;;;;;23.73;41.20;96165.38;10452461;28;1905;-65
2023/07/18 05:42:16;;;;;;;;;;;;;;;23.73;40.93;96165.38;10447123;28;1874;-64
2023/07/18 05:47:16;;;;;;;;;;;;;;;23.69;40.99;96161.72;10441884;28;2321;-64
2023/07/18 05:52:16;;;;;;;;;;;;;;;23.67;40.79;96158.56;10447005;28;1842;-64
2023/07/18 05:57:16;;;;;;;;;;;;;;;23.74;41.31;96163.53;10424030;28;1964;-64
2023/07/18 06:02:17;;;;;;;;;;;;;;;23.76;40.92;96162.16;10447159;28;1967;-64
2023/07/18 06:07:17;;;;;;;;;;;;;;;23.76;41.03;96148.16;10445353;28;1864;-65
2023/07/18 06:12:17;;;;;;;;;;;;;;;23.77;41.06;96147.06;10445290;28;1926;-65
2023/07/18 06:17:18;;;;;;;;;;;;;;;23.74;40.32;96142.34;10440428;28;2185;-66
2023/07/18 06:22:19;;;;;;;;;;;;;;;23.74;40.87;96145.75;10439648;28;1903;-65
2023/07/18 06:27:19;;;;;;;;;;;;;;;23.59;39.26;96143.31;10442865;28;1920;-66
2023/07/18 06:32:19;;;;;;;;;;;;;;;23.60;39.89;96138.78;10432145;28;2014;-68
2023/07/18 06:37:19;;;;;;;;;;;;;;;23.67;40.11;96136.59;10428002;28;1882;-65
2023/07/18 06:42:20;;;;;;;;;;;;;;;23.74;39.88;96129.13;10430437;28;5143;-67
2023/07/18 06:47:20;;;;;;;;;;;;;;;23.68;39.41;96117.03;10436435;28;1778;-68
2023/07/18 06:52:20;;;;;;;;;;;;;;;23.74;39.69;96114.00;10438337;28;1830;-68
2023/07/18 06:57:21;;;;;;;;;;;;;;;23.71;39.47;96117.22;10432826;28;1965;-67
2023/07/18 07:02:21;;;;;;;;;;;;;;;23.79;39.26;96124.53;10430293;28;1856;-68
2023/07/18 07:07:22;;;;;;;;;;;;;;;23.83;39.48;96107.00;10439094;28;1943;-68
2023/07/18 07:12:22;;;;;;;;;;;;;;;23.87;39.20;96121.25;10438667;28;2261;-68
2023/07/18 07:17:23;;;;;;;;;;;;;;;23.90;38.63;96104.81;10435516;28;1906;-69
2023/07/18 07:22:23;;;;;;;;;;;;;;;23.81;37.69;96103.06;10434256;28;1880;-67
2023/07/18 07:27:24;;;;;;;;;;;;;;;23.90;38.44;96091.56;10432313;28;1914;-68
2023/07/18 07:32:24;;;;;;;;;;;;;;;23.95;38.40;96078.25;10416802;28;2084;-67
2023/07/18 07:37:24;;;;;;;;;;;;;;;23.99;37.87;96083.75;10441418;28;2051;-65
2023/07/18 07:42:24;;;;;;;;;;;;;;;24.01;37.52;96076.28;10438648;28;5222;-67
2023/07/18 07:47:25;;;;;;;;;;;;;;;24.02;37.79;96065.44;10436813;28;1837;-67
2023/07/18 07:52:25;;;;;;;;;;;;;;;24.05;37.65;96061.47;10436117;28;1842;-67
2023/07/18 07:57:25;;;;;;;;;;;;;;;24.09;37.64;96062.47;10433808;28;2013;-69
2023/07/18 08:02:26;;;;;;;;;;;;;;;24.14;37.79;96063.16;10436992;28;1915;-67
2023/07/18 08:07:26;;;;;;;;;;;;;;;24.18;37.54;96055.41;10431525;28;2471;-67
2023/07/18 08:12:26;;;;;;;;;;;;;;;24.24;37.82;96038.38;10433864;28;1921;-68
2023/07/18 08:17:27;;;;;;;;;;;;;;;24.27;38.30;96037.81;10434736;28;1988;-68
2023/07/18 08:22:27;;;;;;;;;;;;;;;24.33;38.20;96033.19;10434166;28;1930;-69
2023/07/18 08:27:27;;;;;;;;;;;;;;;24.36;38.08;96028.09;10436161;28;1889;-68
2023/07/18 08:32:27;;;;;;;;;;;;;;;24.41;38.55;96022.72;10434579;28;1901;-69
2023/07/18 08:37:28;;;;;;;;;;;;;;;24.44;37.85;96016.81;10444664;28;1930;-67
2023/07/18 08:42:28;;;;;;;;;;;;;;;24.48;38.31;96007.25;10444463;28;1893;-64
2023/07/18 08:47:28;;;;;;;;;;;;;;;24.52;38.60;96002.94;10444914;28;2083;-65
2023/07/18 08:52:28;;;;;;;;;;;;;;;24.56;38.71;96000.47;10447866;28;1833;-66
2023/07/18 08:57:30;;;;;;;;;;;;;;;24.59;38.63;95990.06;10420809;28;1906;-65
2023/07/18 09:02:31;;;;;;;;;;;;;;;24.62;39.12;95986.84;10425799;28;2253;-63
2023/07/18 09:07:34;;;;;;;;;;;;;;;24.66;38.79;95981.72;10444823;28;1876;-64
2023/07/18 09:12:35;;;;;;;;;;;;;;;24.68;39.28;95980.38;10444237;28;2051;-64
2023/07/18 09:17:35;;;;;;;;;;;;;;;24.73;39.19;95976.84;10439850;28;1913;-64
2023/07/18 09:22:36;;;;;;;;;;;;;;;24.77;38.91;95965.34;10454991;28;1967;-65
2023/07/18 09:27:37;;;;;;;;;;;;;;;24.79;39.41;95955.25;10438378;28;1884;-64
2023/07/18 09:32:39;;;;;;;;;;;;;;;24.83;39.11;95960.75;10441801;28;2003;-65
2023/07/18 09:37:46;;;;;;;;;;;;;;;24.85;39.17;95950.66;10438509;28;1977;-63
2023/07/18 09:42:46;;;;;;;;;;;;;;;24.87;39.28;95943.19;10436674;28;5129;-63
2023/07/18 09:47:47;;;;;;;;;;;;;;;24.90;39.61;95945.22;10437896;28;1908;-66
2023/07/18 09:52:49;;;;;;;;;;;;;;;24.93;39.69;95939.34;10441444;28;1807;-64
2023/07/18 09:57:49;;;;;;;;;;;;;;;24.99;39.75;95946.09;10435767;28;2303;-66
2023/07/18 10:02:52;;;;;;;;;;;;;;;25.03;39.83;95936.47;10439090;28;1938;-66
2023/07/18 10:07:52;;;;;;;;;;;;;;;25.05;39.91;95931.66;10435749;28;1892;-66
2023/07/18 10:12:59;;;;;;;;;;;;;;;25.06;39.83;95924.50;10444645;28;1862;-66
2023/07/18 10:18:15;;;;;;;;;;;;;;;25.09;40.16;95927.31;10441091;28;1946;-64
2023/07/18 10:23:15;;;;;;;;;;;;;;;25.15;40.15;95920.81;10442985;28;2272;-65
2023/07/18 10:28:16;;;;;;;;;;;;;;;25.16;40.30;95921.63;10451685;28;1865;-66
2023/07/18 10:33:16;;;;;;;;;;;;;;;25.19;40.51;95910.41;10439957;28;1957;-67
2023/07/18 10:38:16;;;;;;;;;;;;;;;25.21;40.67;95911.66;10440390;28;1941;-65
2023/07/18 10:43:18;;;;;;;;;;;;;;;25.24;40.65;95912.94;10444433;28;5287;-71
2023/07/18 10:48:19;;;;;;;;;;;;;;;25.26;40.77;95910.78;10434370;28;1837;-66
2023/07/18 10:53:19;;;;;;;;;;;;;;;25.25;40.80;95907.34;10436926;28;1832;-66
2023/07/18 10:58:20;;;;;;;;;;;;;;;25.25;40.78;95894.06;10435625;28;1956;-68
2023/07/18 11:03:25;;;;;;;;;;;;;;;25.24;40.67;95889.88;10421664;28;1957;-67
2023/07/18 11:08:26;;;;;;;;;;;;;;;25.26;40.80;95898.31;10445997;28;1926;-66
2023/07/18 11:13:27;;;;;;;;;;;;;;;25.26;41.08;95893.00;10446398;28;1873;-67
2023/07/18 11:18:31;;;;;;;;;;;;;;;25.27;41.21;95905.16;10445391;28;1945;-67
2023/07/18 11:23:32;;;;;;;;;;;;;;;25.28;41.37;95914.72;10446930;28;1794;-65
2023/07/18 11:28:33;;;;;;;;;;;;;;;25.30;41.26;95917.84;10450560;28;1825;-65
2023/07/18 11:33:33;;;;;;;;;;;;;;;25.31;41.65;95919.41;10449083;28;1767;-65
2023/07/18 11:38:33;;;;;;;;;;;;;;;25.36;41.55;95911.34;10454503;28;1883;-64
2023/07/18 11:43:34;;;;;;;;;;;;;;;25.37;41.71;95891.66;10445069;28;4931;-65
2023/07/18 11:48:35;;;;;;;;;;;;;;;25.37;41.35;95865.13;10443972;28;1821;-65
2023/07/18 11:53:35;;;;;;;;;;;;;;;25.38;41.48;95850.00;10437766;28;2281;-69
2023/07/18 11:58:35;;;;;;;;;;;;;;;25.40;41.30;95822.09;10434645;28;2070;-66
2023/07/18 12:03:36;;;;;;;;;;;;;;;25.42;41.19;95668.69;10433263;28;2008;-66
2023/07/18 12:08:36;;;;;;;;;;;;;;;25.41;40.91;95603.41;10435006;28;1893;-68
2023/07/18 12:13:36;;;;;;;;;;;;;;;25.43;40.52;95808.22;10436158;28;1905;-70
2023/07/18 12:18:37;;;;;;;;;;;;;;;25.64;39.86;95843.81;10429850;28;2052;-68
2023/07/18 12:23:37;;;;;;;;;;;;;;;25.53;40.44;95943.34;10435546;28;1928;-70
2023/07/18 12:28:37;;;;;;;;;;;;;;;25.62;39.46;95984.03;10434593;28;2043;-67
2023/07/18 12:33:38;;;;;;;;;;;;;;;25.74;39.39;96033.94;10433934;28;1970;-69
2023/07/18 12:38:38;;;;;;;;;;;;;;;25.70;39.57;96086.84;10432925;28;1971;-70
2023/07/18 12:43:38;;;;;;;;;;;;;;;25.67;39.92;96119.34;10437037;28;5031;-69
2023/07/18 12:48:39;;;;;;;;;;;;;;;25.66;40.88;96133.66;10446861;28;2322;-69
2023/07/18 12:53:39;;;;;;;;;;;;;;;25.63;42.50;96150.22;10433318;28;2030;-68
2023/07/18 12:58:39;;;;;;;;;;;;;;;25.63;42.65;96152.88;10427591;28;2000;-68
2023/07/18 13:03:39;;;;;;;;;;;;;;;25.66;42.38;96095.72;10431607;28;1965;-66
2023/07/18 13:08:40;;;;;;;;;;;;;;;25.62;43.98;96025.72;10429957;28;1890;-68
2023/07/18 13:13:40;;;;;;;;;;;;;;;25.66;43.34;95974.38;10432248;28;1970;-67
2023/07/18 13:18:40;;;;;;;;;;;;;;;25.68;44.04;95897.06;10444332;28;1967;-72
2023/07/18 13:23:41;;;;;;;;;;;;;;;25.61;45.09;95855.03;10443479;28;1953;-71
2023/07/18 13:28:41;;;;;;;;;;;;;;;25.61;44.74;95840.97;10443445;28;1881;-68
2023/07/18 13:33:43;;;;;;;;;;;;;;;25.62;44.64;95718.56;10446760;28;1946;-71
2023/07/18 13:38:43;;;;;;;;;;;;;;;25.56;44.00;95697.75;10446683;28;1961;-70
2023/07/18 13:43:43;;;;;;;;;;;;;;;25.49;42.29;95676.97;10443446;28;1923;-71
2023/07/18 13:48:43;;;;;;;;;;;;;;;25.44;41.84;95703.66;10448788;28;2018;-72
2023/07/18 13:53:44;;;;;;;;;;;;;;;25.41;41.40;95749.34;10445846;28;2042;-72
2023/07/18 13:58:44;;;;;;;;;;;;;;;25.43;41.37;95800.25;10439391;28;2054;-70
2023/07/18 14:03:45;;;;;;;;;;;;;;;25.41;41.95;95828.97;10447811;28;1960;-73
2023/07/18 14:08:45;;;;;;;;;;;;;;;25.46;42.16;95836.81;10439641;28;1901;-68
2023/07/18 14:13:46;;;;;;;;;;;;;;;25.49;42.68;95798.28;10450684;28;1900;-70
2023/07/18 14:18:46;;;;;;;;;;;;;;;25.54;42.50;95780.34;10447893;28;1985;-67
2023/07/18 14:23:46;;;;;;;;;;;;;;;25.56;42.96;95729.59;10442990;28;1888;-68
2023/07/18 14:28:47;;;;;;;;;;;;;;;25.59;43.05;95718.41;10443200;28;1904;-69
2023/07/18 14:33:47;;;;;;;;;;;;;;;25.62;42.79;95699.19;10443692;28;1818;-68
2023/07/18 14:38:47;;;;;;;;;;;;;;;25.61;42.75;95652.50;10442788;28;1910;-71
2023/07/18 14:43:47;;;;;;;;;;;;;;;25.61;42.71;95652.50;10436915;28;1858;-71
2023/07/18 14:48:48;;;;;;;;;;;;;;;25.64;42.44;95692.47;10437750;28;1952;-68
2023/07/18 14:53:48;;;;;;;;;;;;;;;25.65;42.38;95704.69;10441392;28;1902;-72
2023/07/18 14:58:48;;;;;;;;;;;;;;;25.65;42.23;95723.28;10432956;28;1969;-63
2023/07/18 15:03:49;;;;;;;;;;;;;;;25.67;42.42;95737.03;10394379;28;1815;-65
2023/07/18 15:08:52;;;;;;;;;;;;;;;25.70;42.57;95747.00;10439977;28;1930;-70
2023/07/18 15:13:52;;;;;;;;;;;;;;;25.72;42.78;95734.22;10447419;28;1899;-69
2023/07/18 15:18:52;;;;;;;;;;;;;;;25.73;43.12;95750.94;10449923;28;1946;-69
2023/07/18 15:23:53;;;;;;;;;;;;;;;25.73;43.40;95714.56;10450399;28;1949;-70
2023/07/18 15:28:53;;;;;;;;;;;;;;;25.74;43.79;95712.66;10450326;28;2218;-70
2023/07/18 15:33:53;;;;;;;;;;;;;;;25.77;43.70;95696.91;10447707;28;1948;-69
2023/07/18 15:38:54;;;;;;;;;;;;;;;25.75;43.96;95643.34;10449594;28;2249;-69
2023/07/18 15:43:54;;;;;;;;;;;;;;;25.76;44.33;95644.88;10442441;28;4974;-67
2023/07/18 15:48:54;;;;;;;;;;;;;;;25.78;44.09;95637.41;10445598;28;1882;-68
2023/07/18 15:53:55;;;;;;;;;;;;;;;25.78;44.22;95626.00;10449396;28;1952;-68
2023/07/18 15:58:55;;;;;;;;;;;;;;;25.80;44.08;95558.22;10445313;28;1983;-68
2023/07/18 16:03:55;;;;;;;;;;;;;;;25.79;44.21;95535.41;10450811;28;1779;-67
2023/07/18 16:08:56;;;;;;;;;;;;;;;25.80;43.90;95517.63;10444846;28;1908;-68
2023/07/18 16:13:56;;;;;;;;;;;;;;;25.82;43.90;95526.06;10453815;28;1917;-69
2023/07/18 16:18:57;;;;;;;;;;;;;;;25.81;44.04;95535.88;10451438;28;2261;-68
2023/07/18 16:23:57;;;;;;;;;;;;;;;25.82;43.73;95526.81;10449327;28;1841;-69
2023/07/18 16:28:57;;;;;;;;;;;;;;;25.83;43.78;95516.97;10446351;28;1889;-69
2023/07/18 16:33:57;;;;;;;;;;;;;;;25.83;43.80;95479.81;10447189;28;2236;-70
2023/07/18 16:38:58;;;;;;;;;;;;;;;25.81;43.78;95493.41;10462390;28;2005;-72
2023/07/18 16:43:58;;;;;;;;;;;;;;;25.83;43.74;95509.81;10449508;28;5049;-72
2023/07/18 16:48:59;;;;;;;;;;;;;;;25.83;43.71;95517.78;10445975;28;1899;-72
2023/07/18 16:53:59;;;;;;;;;;;;;;;25.82;43.69;95524.16;10466122;28;1967;-72
2023/07/18 16:59:00;;;;;;;;;;;;;;;25.80;43.56;95518.38;10451928;28;1986;-72
2023/07/18 17:04:01;;;;;;;;;;;;;;;25.82;43.74;95531.38;10450978;28;1961;-72
2023/07/18 17:09:01;;;;;;;;;;;;;;;25.80;43.56;95531.66;10441765;28;1964;-73
2023/07/18 17:14:01;;;;;;;;;;;;;;;25.79;43.73;95540.72;10447416;28;1900;-72
2023/07/18 17:19:02;;;;;;;;;;;;;;;25.78;43.76;95533.09;10454169;28;1977;-73
2023/07/18 17:24:04;;;;;;;;;;;;;;;25.80;43.64;95533.56;10457800;28;1979;-73
2023/07/18 17:29:04;;;;;;;;;;;;;;;25.78;43.71;95533.84;10438146;28;2295;-71
2023/07/18 17:34:04;;;;;;;;;;;;;;;25.78;43.75;95525.88;10449701;28;1929;-72
2023/07/18 17:39:05;;;;;;;;;;;;;;;25.79;43.77;95535.41;10443164;28;1976;-74
2023/07/18 17:44:05;;;;;;;;;;;;;;;25.78;43.87;95552.44;10450523;28;5185;-72
2023/07/18 17:49:05;;;;;;;;;;;;;;;25.79;43.78;95547.91;10447927;28;1934;-73
2023/07/18 17:54:06;;;;;;;;;;;;;;;25.78;43.61;95541.81;10452380;28;2130;-74
2023/07/18 17:59:08;;;;;;;;;;;;;;;25.78;43.63;95544.47;10447311;28;1917;-74
2023/07/18 18:04:09;;;;;;;;;;;;;;;25.78;43.75;95539.16;10455061;28;2262;-73
2023/07/18 18:09:10;;;;;;;;;;;;;;;25.78;43.77;95552.44;10444085;28;1939;-73
2023/07/18 18:14:10;;;;;;;;;;;;;;;25.78;43.91;95565.69;10441488;28;2054;-72
2023/07/18 18:19:10;;;;;;;;;;;;;;;25.79;43.92;95561.19;10438761;28;1906;-73
2023/07/18 18:24:10;;;;;;;;;;;;;;;25.78;43.90;95565.69;10444241;28;2242;-73
2023/07/18 18:29:11;;;;;;;;;;;;;;;25.78;44.03;95568.34;10444198;28;1943;-69
2023/07/18 18:34:11;;;;;;;;;;;;;;;25.80;43.83;95560.09;10435555;28;1938;-65
2023/07/18 18:39:12;;;;;;;;;;;;;;;25.79;43.91;95580.56;10421871;28;1989;-65
2023/07/18 18:44:12;;;;;;;;;;;;;;;25.76;43.83;95586.47;10446065;28;5163;-64
2023/07/18 18:49:14;;;;;;;;;;;;;;;25.77;43.92;95597.88;10439242;28;1858;-69
2023/07/18 18:54:14;;;;;;;;;;;;;;;25.77;43.98;95598.66;10448475;28;1993;-68
2023/07/18 18:59:14;;;;;;;;;;;;;;;25.76;44.02;95594.44;10451364;28;1914;-67
2023/07/18 19:04:15;;;;;;;;;;;;;;;25.79;43.98;95593.03;10451485;28;1869;-68
2023/07/18 19:09:15;;;;;;;;;;;;;;;25.78;43.98;95588.84;10445408;28;1928;-74
2023/07/18 19:14:15;;;;;;;;;;;;;;;25.76;43.96;95581.16;10455587;28;1880;-73
2023/07/18 19:19:17;;;;;;;;;;;;;;;25.74;43.91;95567.41;10449362;28;1925;-74
2023/07/18 19:24:17;;;;;;;;;;;;;;;25.73;43.61;95557.91;10450921;28;2387;-73
2023/07/18 19:29:18;;;;;;;;;;;;;;;25.70;43.72;95545.25;10444312;28;1909;-73
2023/07/18 19:34:18;;;;;;;;;;;;;;;25.69;43.62;95543.69;10451929;28;1914;-72
2023/07/18 19:39:18;;;;;;;;;;;;;;;25.64;43.82;95537.72;10455353;28;1980;-72
2023/07/18 19:44:20;;;;;;;;;;;;;;;25.61;43.70;95541.81;10447887;28;5247;-72
2023/07/18 19:49:21;;;;;;;;;;;;;;;25.60;43.82;95545.53;10453568;28;1945;-73
2023/07/18 19:54:21;;;;;;;;;;;;;;;25.67;43.74;95545.09;10455028;28;1861;-72
2023/07/18 19:59:22;;;;;;;;;;;;;;;25.69;43.48;95537.59;10455800;28;2069;-73
2023/07/18 20:04:22;;;;;;;;;;;;;;;25.68;43.79;95552.72;10458921;28;1971;-76
2023/07/18 20:09:23;;;;;;;;;;;;;;;25.63;43.92;95531.66;10446663;28;2013;-77
2023/07/18 20:14:23;;;;;;;;;;;;;;;25.68;43.79;95542.13;10456256;28;1956;-72
2023/07/18 20:19:23;;;;;;;;;;;;;;;25.64;44.13;95543.81;10441694;28;1987;-73
2023/07/18 20:24:23;;;;;;;;;;;;;;;25.65;44.10;95558.69;10442182;28;1862;-73
2023/07/18 20:29:24;;;;;;;;;;;;;;;25.68;43.81;95571.31;10437658;28;1852;-73
2023/07/18 20:34:24;;;;;;;;;;;;;;;25.70;43.74;95592.22;10466099;28;1877;-72
2023/07/18 20:39:24;;;;;;;;;;;;;;;25.68;43.89;95589.09;10453315;28;1989;-71
2023/07/18 20:44:24;;;;;;;;;;;;;;;25.65;43.97;95579.91;10449932;28;1890;-72
2023/07/18 20:49:26;;;;;;;;;;;;;;;25.58;44.08;95584.09;10452974;28;1893;-72
2023/07/18 20:54:28;;;;;;;;;;;;;;;25.65;43.81;95675.47;10448189;28;1929;-72
2023/07/18 20:59:29;;;;;;;;;;;;;;;25.66;43.96;95677.03;10425600;28;2009;-71
2023/07/18 21:04:29;;;;;;;;;;;;;;;25.65;44.15;95633.00;10444110;28;1877;-71
2023/07/18 21:09:29;;;;;;;;;;;;;;;25.67;44.39;95616.75;10445823;28;1911;-70
2023/07/18 21:14:30;;;;;;;;;;;;;;;25.67;44.91;95614.91;10450467;28;2341;-70
2023/07/18 21:19:30;;;;;;;;;;;;;;;25.69;44.78;95622.53;10440890;28;1969;-70
2023/07/18 21:24:31;;;;;;;;;;;;;;;25.71;44.82;95589.28;10447605;28;1964;-70
2023/07/18 21:29:31;;;;;;;;;;;;;;;25.70;45.07;95598.34;10443651;28;1885;-72
2023/07/18 21:34:31;;;;;;;;;;;;;;;25.70;45.33;95587.72;10445267;28;1920;-71
2023/07/18 21:39:31;;;;;;;;;;;;;;;25.71;45.28;95578.69;10452819;28;1926;-71
2023/07/18 21:44:32;;;;;;;;;;;;;;;25.69;45.62;95574.75;10450924;28;5092;-71
2023/07/18 21:49:32;;;;;;;;;;;;;;;25.72;45.47;95580.22;10442871;28;1935;-71
2023/07/18 21:54:32;;;;;;;;;;;;;;;25.71;45.45;95559.31;10444043;28;1951;-71
2023/07/18 21:59:33;;;;;;;;;;;;;;;25.72;45.16;95561.63;10444746;28;1906;-70
2023/07/18 22:04:33;;;;;;;;;;;;;;;25.75;45.38;95549.63;10443643;28;1886;-71
2023/07/18 22:09:34;;;;;;;;;;;;;;;25.75;45.32;95546.97;10441850;28;1939;-70
2023/07/18 22:14:34;;;;;;;;;;;;;;;25.73;45.37;95549.94;10444425;28;1870;-71
2023/07/18 22:19:35;;;;;;;;;;;;;;;25.75;45.28;95573.50;10446582;28;1949;-70
2023/07/18 22:24:35;;;;;;;;;;;;;;;25.76;45.31;95580.41;10428675;28;1939;-71
2023/07/18 22:29:36;;;;;;;;;;;;;;;25.77;45.27;95580.09;10441697;28;1857;-70
2023/07/18 22:34:36;;;;;;;;;;;;;;;25.77;45.27;95550.88;10444039;28;2126;-70
2023/07/18 22:39:36;;;;;;;;;;;;;;;25.77;45.30;95552.75;10423502;28;1969;-71
2023/07/18 22:44:37;;;;;;;;;;;;;;;25.77;45.39;95534.94;10442163;28;5513;-70
2023/07/18 22:49:37;;;;;;;;;;;;;;;25.76;45.66;95530.72;10443216;28;1965;-71
2023/07/18 22:54:38;;;;;;;;;;;;;;;25.77;45.65;95528.84;10444829;28;2134;-70
2023/07/18 22:59:38;;;;;;;;;;;;;;;25.75;45.59;95537.13;10444966;28;1931;-70
2023/07/18 23:04:38;;;;;;;;;;;;;;;25.78;45.31;95543.69;10445576;28;1849;-70
2023/07/18 23:09:39;;;;;;;;;;;;;;;25.78;45.46;95552.44;10423913;28;2333;-70
2023/07/18 23:14:39;;;;;;;;;;;;;;;25.77;45.34;95544.78;10446152;28;1874;-70
2023/07/18 23:19:39;;;;;;;;;;;;;;;25.76;45.38;95541.34;10448694;28;1978;-70
2023/07/18 23:24:40;;;;;;;;;;;;;;;25.74;45.38;95535.56;10442253;28;2085;-70
2023/07/18 23:29:40;;;;;;;;;;;;;;;25.73;45.28;95522.59;10445315;28;1897;-71
2023/07/18 23:34:40;;;;;;;;;;;;;;;25.73;45.25;95523.38;10435218;28;1878;-70
2023/07/18 23:39:40;;;;;;;;;;;;;;;25.74;45.19;95519.63;10450287;28;4989;-70
2023/07/18 23:44:41;;;;;;;;;;;;;;;25.74;45.20;95514.31;10450175;28;1937;-70
2023/07/18 23:49:41;;;;;;;;;;;;;;;25.74;45.15;95535.56;10447686;28;1819;-73
2023/07/18 23:54:41;;;;;;;;;;;;;;;25.71;45.34;95492.94;10453567;28;1893;-71
2023/07/18 23:59:41;;;;;;;;;;;;;;;25.72;45.23;95484.66;10448703;28;1910;-71
